Tiempo atmosférico en la estación meteorológica de Almazul, Soria (1000 m.)



Fecha
DESCASC
Temp. máxima en grados centígrados (hora)
DESCASC
Temp. mínima en grados centígrados (hora)
DESCASC
Temp. media en grados centígrados
DESCASC
Racha de viento máxima en m/sg (hora)
DESCASC
Velocidad máxima media en intervalos de 10 minutos(hora)
DESCASC
Precipitaciones diarias en mm
DESCASC
Precipitaciones de 00:00 a 06:00 en mm
DESCASC
Precipitaciones de 06:00 a 12:00 en mm
DESCASC
Precipitaciones de 12:00 a 18:00 en mm
DESCASC
Precipitaciones de 18:00 a 24:00 en mm
DESCASC
05-04-2020 16.6 (19:40) 4.9 (06:20) 10.8 11.39 (14:10) 7.78 (18:20) 0 0 0 0 0
04-04-2020 16.1 (17:50) 0.2 (08:00) 8.2 12.22 (17:40) 9.17 (21:00) 0 0 0 0 0
03-04-2020 17.7 (19:50) -1.5 (07:40) 8.1 8.61 (01:20) 6.11 (02:10) 0 0 0 0 0
02-04-2020 9.9 (18:10) 3.3 (00:00) 6.6 15.28 (16:10) 11.94 (18:20) 0 0 0 0 0
01-04-2020 8.4 (14:40) 3 (00:00) 5.7 11.94 (00:30) 9.17 (00:20) 7.4 2.8 4.6 0 0
31-03-2020 3.3 (22:30) -2.3 (-00:0) 0.5 13.89 (20:10) 10.56 (20:20) 3.4 0 0.4 3 0
30-03-2020 4.4 (00:00) -1.2 (-00:0) 1.6 15.83 (06:10) 12.22 (05:10) 0 0 0 0 0
29-03-2020 13.7 (16:20) 0.3 (00:00) 7 14.72 (18:50) 11.67 (18:50) 0 0 0 0 0
28-03-2020 15.9 (17:10) -2.3 (-00:0) 6.8 5.56 (14:00) 3.89 (06:10) 0 0 0 0 0
27-03-2020 10.2 (17:10) -2.9 (-00:0) 3.6 8.33 (13:30) 5.83 (00:20) 0 0 0 0 0
26-03-2020 8 (15:00) -0.3 (00:00) 3.8 16.39 (10:40) 12.78 (10:40) 0 0 0 0 0
25-03-2020 12.1 (13:30) 0.7 (00:00) 6.4 8.06 (16:30) 6.39 (10:30) 0 0 0 0 0
24-03-2020 9.6 (17:00) 2.9 (00:00) 6.3 9.72 (15:50) 7.5 (16:00) 0.2 0.2 0 0 0
23-03-2020 11.3 (16:50) 5.3 (00:00) 8.3 10.83 (19:10) 7.78 (15:30) 0.2 0 0.2 0 0
22-03-2020 11.5 (15:40) 5.7 (04:00) 8.6 11.67 (13:20) 8.61 (16:40) 0 0 0 0 0
21-03-2020 11.3 (14:50) 4.5 (00:00) 7.9 7.22 (10:40) 5.83 (10:40) 0 0 0 0 0
20-03-2020 12.1 (16:30) 3.4 (00:00) 7.8 8.61 (23:00) 6.39 (23:10) 0 0 0 0 0
19-03-2020 13.4 (15:30) 4.2 (00:00) 8.8 8.89 (11:10) 7.22 (20:10) 0 0 0 0 0
18-03-2020 14.3 (14:30) 5.3 (00:00) 9.8 6.39 (11:30) 4.44 (11:30) 0 0 0 0 0
17-03-2020 9.7 (14:30) 4.8 (00:00) 7.3 13.06 (12:00) 10 (00:20) 2.6 0.2 2.4 0 0
16-03-2020 7 (04:30) 0.1 (00:00) 3.6 17.5 (16:20) 13.06 (16:20) 17.6 9.6 4 2.4 1.6
15-03-2020 17.9 (16:10) 2.5 (00:00) 10.2 14.72 (17:30) 11.11 (17:30) 7 0 0 0 7
14-03-2020 18.7 (17:30) 1 (00:00) 9.9 6.67 (18:50) 5.28 (18:40) 0 0 0 0 0
13-03-2020 17.2 (15:30) 4.6 (23:59) 10.9 15 (06:50) 10.83 (07:00) 0 0 0 0 0
12-03-2020 23.6 (14:40) 6.2 (00:00) 14.9 12.5 (14:50) 8.61 (19:20) 0 0 0 0 0
11-03-2020 22.7 (16:20) 4.3 (00:00) 13.5 9.44 (17:00) 6.67 (17:20) 0 0 0 0 0
10-03-2020 18.3 (15:20) 2.1 (00:00) 10.2 10.83 (17:30) 7.78 (17:50) 0 0 0 0 0
09-03-2020 11.8 (15:20) 3.1 (00:00) 7.5 15 (18:30) 11.39 (16:20) 0 0 0 0 0
08-03-2020 12.6 (14:30) -1.4 (-00:0) 5.6 13.06 (15:40) 8.89 (15:40) 0 0 0 0 0

Gráficas

Temp. máximas Temp. mínimas Temp. medias Precipitaciones Rachas de viento máximas Velocidades máximas media en intervalos de 10 minutos

Datos horarios

Fecha y hora oficial Temperatura (ºC) Velocidad del viento (km/h) Dirección del viento Racha (km/h) Dirección de racha Precipitación (mm) Presión (hPa) Tendencia (hPa) Humedad (%)
2020-04-06 23:00:00 10.3 6 Este 18 Nordeste 0 -- -- 93
2020-04-06 22:00:00 10.4 9 Norte 29 Norte 3.8 -- -- 89
2020-04-06 21:00:00 11.4 17 Sur 31 Sudeste 1.6 -- -- 92
2020-04-06 20:00:00 13.6 16 Sur 28 Sur 0 -- -- 73
2020-04-06 19:00:00 14 23 Sur 31 Sudoeste 0 -- -- 70
2020-04-06 18:00:00 15.4 25 Sudoeste 35 Sur 0 -- -- 66
2020-04-06 17:00:00 15.1 22 Sudoeste 32 Sudoeste 0 -- -- 70
2020-04-06 16:00:00 13.4 21 Sudoeste 31 Sudoeste 0 -- -- 76
2020-04-06 15:00:00 12.8 21 Sudoeste 34 Sudoeste 0 -- -- 80
2020-04-06 14:00:00 12.8 23 Sudoeste 40 Sudoeste 0 -- -- 84
2020-04-06 13:00:00 13.1 30 Sudoeste 40 Sudoeste 0 -- -- 80
2020-04-06 12:00:00 13.7 21 Sudoeste 31 Sudoeste 0 -- -- 76
2020-04-06 11:00:00 12 18 Sudoeste 27 Sur 0 -- -- 84
2020-04-06 10:00:00 10.5 17 Sur 23 Sur 0 -- -- 87
2020-04-06 09:00:00 9.6 13 Sur 17 Sur 0.2 -- -- 89
2020-04-06 08:00:00 8.9 14 Sur 17 Sur 0 -- -- 90
2020-04-06 07:00:00 8.5 13 Sur 18 Sur 0 -- -- 91
2020-04-06 06:00:00 8.6 14 Sur 17 Sur 0 -- -- 89
2020-04-06 05:00:00 8.7 10 Sur 14 Sudeste 0 -- -- 88
2020-04-06 04:00:00 9.1 9 Sudeste 17 Sur 0 -- -- 85
2020-04-06 03:00:00 9.2 14 Sur 18 Sur 0 -- -- 83
2020-04-06 02:00:00 9.3 10 Sudeste 17 Sudeste 0 -- -- 82
2020-04-06 01:00:00 9.5 9 Sudeste 12 Sudeste 0 -- -- 80
2020-04-06 00:00:00 9.8 10 Sudeste 12 Sudeste 0 -- -- 78
2020-04-05 23:00:00 9.6 10 Sudeste 18 Sur 0 -- -- 79
2020-04-05 22:00:00 11.2 14 Sur 17 Sur 0 -- -- 73
2020-04-05 21:00:00 11.8 12 Sur 25 Oeste 0 -- -- 69
2020-04-05 20:00:00 15.3 19 Sudoeste 33 Sudoeste 0 -- -- 53
2020-04-05 19:00:00 15.5 23 Sudoeste 36 Sudoeste 0 -- -- 53
2020-04-05 18:00:00 16.3 24 Sudoeste 34 Sudoeste 0 -- -- 51
2020-04-05 17:00:00 15.4 19 Sudoeste 40 Sudoeste 0 -- -- 54
2020-04-05 16:00:00 16.5 25 Sudoeste 39 Sur 0 -- -- 49
2020-04-05 15:00:00 15.3 21 Sudoeste 41 Sudoeste 0 -- -- 55
2020-04-05 14:00:00 13.9 21 Sudoeste 34 Sudoeste 0 -- -- 61
2020-04-05 13:00:00 13.5 23 Sudoeste 33 Sudoeste 0 -- -- 61
2020-04-05 12:00:00 12.1 22 Sudoeste 32 Sudoeste 0 -- -- 68
2020-04-05 11:00:00 9.1 18 Sur 22 Sur 0 -- -- 79
2020-04-05 10:00:00 6.6 12 Sur 18 Sur 0 -- -- 89
2020-04-05 09:00:00 5.8 11 Sur 18 Sur 0 -- -- 91
2020-04-05 08:00:00 5.6 13 Sur 18 Sur 0 -- -- 90
2020-04-05 07:00:00 5.9 15 Sur 19 Sur 0 -- -- 87
2020-04-05 06:00:00 5.1 6 Sur 13 Sudeste 0 -- -- 89
2020-04-05 05:00:00 5.5 6 Sudeste 9 Sudeste 0 -- -- 86
2020-04-05 04:00:00 5.5 6 Sudeste 12 Sudeste 0 -- -- 85
2020-04-05 03:00:00 6.4 11 Sudeste 15 Sudeste 0 -- -- 81
2020-04-05 02:00:00 6.2 11 Sur 18 Sudeste 0 -- -- 84
2020-04-05 01:00:00 7.5 12 Sudeste 21 Sudeste 0 -- -- 80
2020-04-05 00:00:00 8.5 10 Sur 23 Sudeste 0 -- -- 79
2020-04-04 23:00:00 9.6 13 Sur 31 Sudeste 0 -- -- 76
2020-04-04 22:00:00 10.7 30 Sudeste 39 Sudeste 0 -- -- 71
2020-04-04 21:00:00 11.2 33 Sudeste 44 Sudeste 0 -- -- 69
2020-04-04 20:00:00 12.3 32 Sudeste 44 Sudeste 0 -- -- 66
2020-04-04 19:00:00 13.9 31 Sudeste 40 Sudeste 0 -- -- 57
2020-04-04 18:00:00 15.8 32 Sur 44 Sudeste 0 -- -- 44
2020-04-04 17:00:00 15.6 30 Sur 42 Sur 0 -- -- 40
2020-04-04 16:00:00 15.7 23 Sur 36 Sur 0 -- -- 42
2020-04-04 15:00:00 14.6 18 Sur 29 Sur 0 -- -- 40
2020-04-04 14:00:00 13.8 16 Sur 29 Sur 0 -- -- 38
2020-04-04 13:00:00 12.4 17 Sur 29 Sur 0 -- -- 46
2020-04-04 12:00:00 11.7 16 Sur 25 Sur 0 -- -- 52
2020-04-04 11:00:00 9 13 Sur 22 Sur 0 -- -- 71
2020-04-04 10:00:00 6.7 10 Sur 15 Sur 0 -- -- 76
2020-04-04 09:00:00 4.4 2 Sudeste 5 Este 0 -- -- 78
2020-04-04 08:00:00 0.2 3 Sur 4 Sur 0 -- -- 90
2020-04-04 07:00:00 1 2 Este 14 Este 0 -- -- 89
2020-04-04 06:00:00 0.5 4 Nordeste 6 Este 0 -- -- 89
2020-04-04 05:00:00 1.3 4 Nordeste 9 Nordeste 0 -- -- 87
2020-04-04 04:00:00 1.7 8 Nordeste 10 Nordeste 0 -- -- 88
2020-04-04 03:00:00 2.3 5 Nordeste 8 Norte 0 -- -- 84
2020-04-04 02:00:00 2.4 6 Norte 9 Norte 0 -- -- 84
2020-04-04 01:00:00 3.9 2 Nordeste 10 Este 0 -- -- 81
2020-04-04 00:00:00 4.8 3 Este 12 Este 0 -- -- 78
2020-04-03 23:00:00 5.3 6 Este 17 Sudeste 0 -- -- 76
2020-04-03 22:00:00 7.6 10 Sudeste 22 Sudeste 0 -- -- 68
2020-04-03 21:00:00 8.2 15 Este 22 Este 0 -- -- 70
2020-04-03 20:00:00 17 0 Calma 10 Sur 0 -- -- 31
2020-04-03 19:00:00 14.2 7 Sudeste 12 Este 0 -- -- 33
2020-04-03 18:00:00 15.7 3 Sudeste 16 Norte 0 -- -- 31
2020-04-03 17:00:00 13.9 8 Noroeste 18 Noroeste 0 -- -- 36
2020-04-03 16:00:00 13.1 6 Este 16 Nordeste 0 -- -- 34
2020-04-03 15:00:00 11 9 Norte 19 Norte 0 -- -- 39
2020-04-03 14:00:00 9.8 7 Norte 17 Noroeste 0 -- -- 39
2020-04-03 13:00:00 8.4 8 Noroeste 17 Noroeste 0 -- -- 47
2020-04-03 12:00:00 6.9 11 Norte 24 Norte 0 -- -- 48
2020-04-03 11:00:00 5.3 17 Nordeste 25 Nordeste 0 -- -- 52
2020-04-03 10:00:00 3.1 17 Norte 23 Norte 0 -- -- 66
2020-04-03 09:00:00 1 12 Norte 17 Norte 0 -- -- 74
2020-04-03 08:00:00 -1.1 5 Norte 8 Noroeste 0 -- -- 78
2020-04-03 07:00:00 -1.1 6 Nordeste 15 Norte 0 -- -- 80
2020-04-03 06:00:00 -0.4 12 Norte 21 Nordeste 0 -- -- 82
2020-04-03 05:00:00 -0.8 8 Norte 12 Norte 0 -- -- 88
2020-04-03 04:00:00 -0.6 5 Norte 21 Norte 0 -- -- 89
2020-04-03 03:00:00 1 19 Norte 27 Norte 0 -- -- 86
2020-04-03 02:00:00 1.7 19 Norte 31 Norte 0 -- -- 84
2020-04-03 01:00:00 1.9 12 Norte 19 Nordeste 0 -- -- 84
2020-04-03 00:00:00 3.3 14 Norte 42 Norte 0 -- -- 81
2020-04-02 23:00:00 5.1 31 Norte 43 Norte 0 -- -- 70
2020-04-02 22:00:00 6.4 28 Nordeste 43 Nordeste 0 -- -- 76
2020-04-02 21:00:00 6.9 33 Nordeste 45 Nordeste 0 -- -- 74
2020-04-02 20:00:00 7.3 26 Norte 54 Nordeste 0 -- -- 74
2020-04-02 19:00:00 8.3 36 Nordeste 55 Nordeste 0 -- -- 67
2020-04-02 18:00:00 9.5 35 Nordeste 52 Nordeste 0 -- -- 64
2020-04-02 17:00:00 9.8 36 Nordeste 55 Nordeste 0 -- -- 65
2020-04-02 16:00:00 9.2 39 Nordeste 54 Nordeste 0 -- -- 64
2020-04-02 15:00:00 9.4 40 Nordeste 54 Nordeste 0 -- -- 63
2020-04-02 14:00:00 9.3 30 Nordeste 44 Nordeste 0 -- -- 67
2020-04-02 13:00:00 9.8 26 Nordeste 42 Nordeste 0 -- -- 69
2020-04-02 12:00:00 8.3 26 Nordeste 35 Nordeste 0 -- -- 74
2020-04-02 11:00:00 5.4 7 Nordeste 17 Nordeste 0 -- -- 91
2020-04-02 10:00:00 4.9 13 Nordeste 20 Nordeste 0 -- -- 94
2020-04-02 09:00:00 4.5 14 Nordeste 18 Nordeste 0 -- -- 94
2020-04-02 08:00:00 4.4 13 Nordeste 17 Nordeste 0 -- -- 94
2020-04-02 07:00:00 4.7 9 Nordeste 15 Nordeste 0 -- -- 94
2020-04-02 06:00:00 4.7 10 Nordeste 12 Nordeste 0 -- -- 94
2020-04-02 05:00:00 4.9 0 Calma 6 Este 0 -- -- 93
2020-04-02 04:00:00 4.9 5 Nordeste 8 Este 0 -- -- 93
2020-04-02 03:00:00 4.9 5 Sudeste 10 Este 0 -- -- 94
2020-04-02 02:00:00 4.9 6 Este 9 Este 0 -- -- 94
2020-04-02 01:00:00 4.9 8 Este 13 Este 0 -- -- 94
2020-04-02 00:00:00 5.1 8 Sudeste 12 Sudeste 0 -- -- 94
2020-04-01 23:00:00 5.1 10 Sudeste 19 Sudeste 0 -- -- 94
2020-04-01 22:00:00 5.2 14 Este 20 Sudeste 0 -- -- 92
2020-04-01 21:00:00 5.5 16 Sudeste 21 Sudeste 0 -- -- 91
2020-04-01 20:00:00 6.4 13 Sudeste 23 Sudeste 0 -- -- 87
2020-04-01 19:00:00 6.9 13 Sudeste 22 Sudeste 0 -- -- 85
2020-04-01 18:00:00 6.8 17 Este 27 Sudeste 0 -- -- 86
2020-04-01 17:00:00 6.9 18 Sudeste 26 Este 0 -- -- 85
2020-04-01 16:00:00 7.2 19 Este 27 Este 0 -- -- 86
2020-04-01 15:00:00 7.9 18 Sudeste 26 Sudeste 0 -- -- 83
2020-04-01 14:00:00 7.1 21 Sudeste 32 Sudeste 0 -- -- 88
2020-04-01 13:00:00 6.4 24 Sudeste 31 Sudeste 0 -- -- 88
2020-04-01 12:00:00 5.2 25 Sudeste 37 Sudeste 0 -- -- 89
2020-04-01 11:00:00 4.3 17 Sudeste 30 Sudeste 0.2 -- -- 93
2020-04-01 10:00:00 3.7 23 Sudeste 34 Sudeste 0 -- -- 94
2020-04-01 09:00:00 3.6 14 Sudeste 24 Sudeste 1 -- -- 97
2020-04-01 08:00:00 3.7 8 Sur 22 Este 0.8 -- -- 97
2020-04-01 07:00:00 3.5 14 Este 26 Sudeste 2.6 -- -- 97
2020-04-01 06:00:00 3.8 14 Sudeste 22 Sudeste 2 -- -- 97
2020-04-01 05:00:00 3.7 8 Sur 27 Sudeste 0.8 -- -- 98
2020-04-01 04:00:00 3.5 19 Sudeste 38 Sudeste 0 -- -- 97
2020-04-01 03:00:00 3.4 26 Sudeste 39 Sudeste 0 -- -- 97
2020-04-01 02:00:00 3.4 28 Sudeste 39 Sudeste 0 -- -- 97
2020-04-01 01:00:00 3.2 31 Sudeste 43 Este 0 -- -- 97
2020-04-01 00:00:00 3.2 30 Sudeste 42 Sudeste 0 -- -- 96
2020-03-31 23:00:00 3.2 21 Sudeste 40 Sudeste 0 -- -- 96
2020-03-31 22:00:00 3.1 27 Sudeste 45 Sudeste 0 -- -- 96
2020-03-31 21:00:00 2.9 34 Sudeste 50 Sudeste 0 -- -- 96
2020-03-31 20:00:00 2.8 38 Sudeste 50 Sudeste 0 -- -- 95
2020-03-31 19:00:00 2.8 30 Sudeste 44 Sudeste 0 -- -- 93
2020-03-31 18:00:00 3.1 31 Sudeste 42 Sudeste 0 -- -- 93
2020-03-31 17:00:00 2.4 15 Sudeste 37 Sudeste 0.2 -- -- 94
2020-03-31 16:00:00 1.7 15 Sudeste 32 Sudeste 0 -- -- 93
2020-03-31 15:00:00 0.9 18 Sudeste 35 Sudeste 1 -- -- 93
2020-03-31 14:00:00 0.5 15 Sudeste 33 Sudeste 1.2 -- -- 94
2020-03-31 13:00:00 0.4 10 Sur 21 Sur 0.6 -- -- 93
2020-03-31 12:00:00 -0.4 18 Sudeste 25 Sudeste 0.4 -- -- 94
2020-03-31 11:00:00 -0.7 13 Sudeste 19 Sudeste 0 -- -- 96
2020-03-31 10:00:00 -0.9 6 Sudeste 13 Sudeste 0 -- -- 95
2020-03-31 09:00:00 -1.6 8 Sudeste 29 Este 0 -- -- 96
2020-03-31 08:00:00 -1.9 17 Este 28 Este 0 -- -- 96
2020-03-31 07:00:00 -2.1 19 Este 25 Este 0 -- -- 96
2020-03-31 06:00:00 -2 15 Este 23 Este 0 -- -- 96
2020-03-31 05:00:00 -2.2 6 Este 14 Este 0 -- -- 96
2020-03-31 04:00:00 -2.2 10 Nordeste 19 Nordeste 0 -- -- 95
2020-03-31 03:00:00 -2.1 13 Nordeste 19 Nordeste 0 -- -- 95
2020-03-31 02:00:00 -1.8 14 Nordeste 17 Nordeste 0 -- -- 93
2020-03-31 01:00:00 -1.1 12 Este 23 Nordeste 0 -- -- 82
2020-03-31 00:00:00 -0.5 11 Este 31 Este 0 -- -- 73
2020-03-30 23:00:00 0 18 Nordeste 26 Nordeste 0 -- -- 68
2020-03-30 22:00:00 0.1 12 Este 26 Nordeste 0 -- -- 66
2020-03-30 21:00:00 1 20 Nordeste 31 Nordeste 0 -- -- 59
2020-03-30 20:00:00 1.6 25 Nordeste 32 Nordeste 0 -- -- 55
2020-03-30 19:00:00 2.3 22 Nordeste 31 Nordeste 0 -- -- 49
2020-03-30 18:00:00 3 24 Nordeste 34 Nordeste 0 -- -- 49
2020-03-30 17:00:00 3.2 23 Nordeste 36 Nordeste 0 -- -- 51
2020-03-30 16:00:00 2.7 25 Nordeste 35 Nordeste 0 -- -- 55
2020-03-30 15:00:00 2.4 25 Nordeste 36 Nordeste 0 -- -- 57
2020-03-30 14:00:00 1.2 26 Nordeste 40 Nordeste 0 -- -- 62
2020-03-30 13:00:00 1.1 32 Nordeste 43 Nordeste 0 -- -- 60
2020-03-30 12:00:00 0.9 26 Nordeste 44 Nordeste 0 -- -- 60
2020-03-30 11:00:00 0.5 34 Nordeste 44 Nordeste 0 -- -- 61
2020-03-30 10:00:00 -1.2 33 Nordeste 54 Nordeste 0 -- -- 75
2020-03-30 09:00:00 -0.7 35 Norte 48 Norte 0 -- -- 73
2020-03-30 08:00:00 -0.5 32 Nordeste 41 Nordeste 0 -- -- 77
2020-03-30 07:00:00 0 31 Nordeste 57 Norte 0 -- -- 81
2020-03-30 06:00:00 0.5 40 Nordeste 56 Norte 0 -- -- 82
2020-03-30 05:00:00 1.3 37 Nordeste 55 Nordeste 0 -- -- 85
2020-03-30 04:00:00 2.6 37 Norte 53 Nordeste 0 -- -- 76
2020-03-30 03:00:00 3.5 33 Norte 50 Norte 0 -- -- 78
2020-03-30 02:00:00 3.7 29 Norte 39 Nordeste 0 -- -- 77
2020-03-30 01:00:00 3 17 Nordeste 39 Norte 0 -- -- 81
2020-03-30 00:00:00 4.4 27 Norte 46 Norte 0 -- -- 76
2020-03-29 23:00:00 4.8 37 Norte 49 Norte 0 -- -- 82
2020-03-29 22:00:00 5.7 36 Nordeste 50 Nordeste 0 -- -- 79
2020-03-29 21:00:00 6.3 36 Nordeste 49 Nordeste 0 -- -- 76
2020-03-29 20:00:00 7.7 37 Nordeste 51 Nordeste 0 -- -- 69
2020-03-29 19:00:00 9.5 40 Nordeste 53 Nordeste 0 -- -- 56
2020-03-29 18:00:00 12.1 39 Nordeste 50 Nordeste 0 -- -- 40
2020-03-29 17:00:00 12.9 32 Nordeste 45 Nordeste 0 -- -- 37
2020-03-29 16:00:00 13.3 26 Nordeste 39 Nordeste 0 -- -- 32
2020-03-29 15:00:00 13 24 Nordeste 35 Nordeste 0 -- -- 38
2020-03-29 14:00:00 12.6 16 Nordeste 28 Nordeste 0 -- -- 41
2020-03-29 13:00:00 11.9 12 Nordeste 22 Nordeste 0 -- -- 47
2020-03-29 12:00:00 11.2 9 Norte 15 Nordeste 0 -- -- 50
2020-03-29 11:00:00 9.7 8 Nordeste 13 Norte 0 -- -- 61
2020-03-29 10:00:00 5.8 11 Nordeste 13 Nordeste 0 -- -- 77
2020-03-29 09:00:00 2.8 8 Norte 10 Norte 0 -- -- 81
2020-03-29 08:00:00 0.5 8 Norte 10 Nordeste 0 -- -- 87
2020-03-29 07:00:00 1.1 6 Nordeste 10 Norte 0 -- -- 87
2020-03-29 06:00:00 0.7 8 Norte 12 Norte 0 -- -- 89
2020-03-29 05:00:00 2 8 Norte 15 Nordeste 0 -- -- 85
2020-03-29 03:00:00 3.5 6 Nordeste 11 Nordeste 0 -- -- 80
2020-03-29 01:00:00 3.3 5 Norte 12 Nordeste 0 -- -- 78
2020-03-29 00:00:00 4.6 3 Norte 6 Norte 0 -- -- 72
2020-03-28 23:00:00 4.6 4 Nordeste 12 Norte 0 -- -- 75
2020-03-28 22:00:00 5.8 2 Este 8 Norte 0 -- -- 64
2020-03-28 21:00:00 8.8 5 Sudeste 9 Sur 0 -- -- 52
2020-03-28 20:00:00 9.1 6 Sur 13 Sur 0 -- -- 54
2020-03-28 19:00:00 13.5 5 Sudoeste 10 Sudoeste 0 -- -- 43
2020-03-28 18:00:00 14.7 9 Sudoeste 18 Sur 0 -- -- 38
2020-03-28 17:00:00 14.7 3 Este 17 Sudoeste 0 -- -- 39
2020-03-28 16:00:00 12.5 10 Sudoeste 18 Sudoeste 0 -- -- 42
2020-03-28 15:00:00 12.8 7 Oeste 18 Sur 0 -- -- 44
2020-03-28 14:00:00 13.1 12 Sur 20 Sur 0 -- -- 43
2020-03-28 13:00:00 11.3 9 Noroeste 17 Noroeste 0 -- -- 47
2020-03-28 12:00:00 11.3 5 Oeste 10 Oeste 0 -- -- 45
2020-03-28 11:00:00 10.6 3 Nordeste 10 Norte 0 -- -- 47
2020-03-28 10:00:00 6.7 9 Nordeste 12 Nordeste 0 -- -- 55
2020-03-28 09:00:00 4.2 4 Norte 11 Nordeste 0 -- -- 67
2020-03-28 08:00:00 0.3 8 Nordeste 11 Nordeste 0 -- -- 77
2020-03-28 07:00:00 -1.8 10 Nordeste 17 Nordeste 0 -- -- 82
2020-03-28 06:00:00 -1.9 8 Nordeste 12 Nordeste 0 -- -- 83
2020-03-28 05:00:00 -1.7 0 Calma 5 Nordeste 0 -- -- 82
2020-03-28 04:00:00 -0.5 6 Nordeste 8 Nordeste 0 -- -- 75
2020-03-28 03:00:00 -0.7 3 Norte 10 Norte 0 -- -- 79
2020-03-28 02:00:00 2 5 Este 13 Nordeste 0 -- -- 65
2020-03-28 01:00:00 0.2 3 Este 11 Sudeste 0 -- -- 74
2020-03-28 00:00:00 1.4 11 Sudeste 13 Sudeste 0 -- -- 67
2020-03-27 23:00:00 1.6 4 Sudeste 12 Este 0 -- -- 67
2020-03-27 22:00:00 2.3 3 Norte 14 Nordeste 0 -- -- 71
2020-03-27 21:00:00 3.9 4 Nordeste 10 Sudeste 0 -- -- 58
2020-03-27 20:00:00 5 9 Sudeste 18 Sudeste 0 -- -- 52
2020-03-27 19:00:00 7.8 12 Sudeste 23 Sudeste 0 -- -- 40
2020-03-27 18:00:00 9.4 13 Sudeste 20 Sudeste 0 -- -- 36
2020-03-27 17:00:00 9.5 14 Sudeste 26 Sudeste 0 -- -- 34
2020-03-27 16:00:00 9.8 13 Sudeste 29 Sudeste 0 -- -- 39
2020-03-27 15:00:00 9 18 Sur 30 Sudeste 0 -- -- 38
2020-03-27 14:00:00 8.2 18 Sur 30 Sudeste 0 -- -- 40
2020-03-27 13:00:00 7.5 12 Sur 26 Sudeste 0 -- -- 48
2020-03-27 12:00:00 6.5 11 Sudeste 23 Sudeste 0 -- -- 53
2020-03-27 11:00:00 5.6 14 Sudeste 23 Sudeste 0 -- -- 56
2020-03-27 10:00:00 4.2 9 Este 18 Nordeste 0 -- -- 58
2020-03-27 09:00:00 3 5 Nordeste 15 Nordeste 0 -- -- 65
2020-03-27 08:00:00 -0.6 12 Nordeste 14 Este 0 -- -- 80
2020-03-27 07:00:00 -2.8 2 Nordeste 10 Norte 0 -- -- 88
2020-03-27 06:00:00 -1.4 7 Nordeste 11 Este 0 -- -- 82
2020-03-27 05:00:00 -1.7 9 Nordeste 12 Nordeste 0 -- -- 81
2020-03-27 04:00:00 -1 9 Nordeste 17 Norte 0 -- -- 82
2020-03-27 03:00:00 -0.5 13 Nordeste 23 Norte 0 -- -- 78
2020-03-27 02:00:00 -0.8 18 Norte 26 Nordeste 0 -- -- 77
2020-03-27 01:00:00 0.2 18 Nordeste 28 Nordeste 0 -- -- 72
2020-03-27 00:00:00 1.1 24 Nordeste 37 Nordeste 0 -- -- 67
2020-03-26 23:00:00 1.6 29 Nordeste 38 Nordeste 0 -- -- 61
2020-03-26 22:00:00 1.4 19 Nordeste 28 Nordeste 0 -- -- 66
2020-03-26 21:00:00 1.9 21 Nordeste 31 Nordeste 0 -- -- 63
2020-03-26 20:00:00 3.6 19 Norte 37 Norte 0 -- -- 57
2020-03-26 19:00:00 5.5 30 Norte 38 Norte 0 -- -- 48
2020-03-26 18:00:00 7.1 30 Norte 42 Norte 0 -- -- 44
2020-03-26 17:00:00 8 22 Nordeste 39 Norte 0 -- -- 41
2020-03-26 16:00:00 7.4 28 Norte 47 Norte 0 -- -- 44
2020-03-26 15:00:00 8 29 Norte 49 Norte 0 -- -- 44
2020-03-26 14:00:00 6.7 33 Norte 47 Norte 0 -- -- 51
2020-03-26 13:00:00 5.2 28 Norte 51 Norte 0 -- -- 52
2020-03-26 12:00:00 4.8 39 Norte 56 Norte 0 -- -- 59
2020-03-26 11:00:00 5.8 35 Norte 59 Norte 0 -- -- 56
2020-03-26 10:00:00 4.9 41 Norte 56 Norte 0 -- -- 60
2020-03-26 09:00:00 4.1 34 Norte 48 Norte 0 -- -- 63
2020-03-26 08:00:00 3.5 28 Norte 38 Norte 0 -- -- 72
2020-03-26 07:00:00 1.1 12 Norte 25 Norte 0 -- -- 80
2020-03-26 06:00:00 0.4 10 Norte 16 Norte 0 -- -- 84
2020-03-26 05:00:00 1.1 16 Norte 25 Norte 0 -- -- 76
2020-03-26 04:00:00 0.8 18 Norte 31 Norte 0 -- -- 71
2020-03-26 03:00:00 0.8 9 Norte 31 Norte 0 -- -- 72
2020-03-26 02:00:00 2.4 27 Norte 37 Norte 0 -- -- 64
2020-03-26 01:00:00 3.9 28 Norte 35 Norte 0 -- -- 66
2020-03-26 00:00:00 3.2 18 Nordeste 25 Nordeste 0 -- -- 87
2020-03-25 23:00:00 4.7 12 Nordeste 16 Nordeste 0 -- -- 83
2020-03-25 22:00:00 5.5 5 Norte 13 Nordeste 0 -- -- 79
2020-03-25 21:00:00 6.2 3 Norte 8 Sudoeste 0 -- -- 79
2020-03-25 20:00:00 7 4 Sur 15 Sur 0 -- -- 73
2020-03-25 19:00:00 10.6 3 Sudeste 15 Nordeste 0 -- -- 53
2020-03-25 18:00:00 11.7 11 Nordeste 23 Este 0 -- -- 46
2020-03-25 17:00:00 11.7 11 Este 29 Este 0 -- -- 51
2020-03-25 16:00:00 11.1 19 Nordeste 28 Nordeste 0 -- -- 56
2020-03-25 15:00:00 9.8 15 Sudeste 27 Sudeste 0 -- -- 67
2020-03-25 14:00:00 11.2 7 Este 14 Este 0 -- -- 55
2020-03-25 13:00:00 10.4 5 Este 22 Norte 0 -- -- 55
2020-03-25 12:00:00 8.9 11 Nordeste 21 Nordeste 0 -- -- 60
2020-03-25 11:00:00 8.2 14 Nordeste 28 Nordeste 0 -- -- 69
2020-03-25 10:00:00 6.1 13 Nordeste 19 Nordeste 0 -- -- 84
2020-03-25 09:00:00 6.1 2 Este 4 Este 0 -- -- 82
2020-03-25 08:00:00 1.3 0 Calma 5 Nordeste 0 -- -- 93
2020-03-25 07:00:00 1.7 3 Nordeste 6 Norte 0 -- -- 95
2020-03-25 06:00:00 1.7 2 Norte 9 Norte 0 -- -- 95
2020-03-25 05:00:00 2.7 3 Norte 9 Norte 0 -- -- 93
2020-03-25 04:00:00 2.5 4 Norte 6 Nordeste 0 -- -- 95
2020-03-25 03:00:00 3.4 3 Sudeste 6 Norte 0 -- -- 94
2020-03-25 02:00:00 3.2 0 Calma 6 Nordeste 0 -- -- 94
2020-03-25 01:00:00 3.2 4 Nordeste 7 Nordeste 0 -- -- 94
2020-03-25 00:00:00 3 5 Nordeste 10 Nordeste 0 -- -- 93
2020-03-24 23:00:00 4.1 6 Nordeste 9 Nordeste 0 -- -- 88
2020-03-24 22:00:00 4.3 2 Sur 9 Sur 0 -- -- 85
2020-03-24 21:00:00 4.9 5 Este 11 Sudeste 0 -- -- 85
2020-03-24 20:00:00 6.9 9 Sudeste 10 Sudeste 0 -- -- 77
2020-03-24 19:00:00 8.3 6 Sur 19 Sudeste 0 -- -- 73
2020-03-24 18:00:00 9 14 Sudeste 25 Sudeste 0 -- -- 69
2020-03-24 17:00:00 9.6 16 Sur 32 Sur 0 -- -- 69
2020-03-24 16:00:00 8.7 27 Sudeste 35 Sudeste 0 -- -- 74
2020-03-24 15:00:00 8.6 24 Sur 34 Sur 0 -- -- 77
2020-03-24 14:00:00 8.8 24 Sudeste 32 Sudeste 0 -- -- 77
2020-03-24 13:00:00 7.5 13 Sudeste 22 Sudeste 0 -- -- 83
2020-03-24 12:00:00 6.7 13 Sudeste 28 Sudeste 0 -- -- 88
2020-03-24 11:00:00 6.3 21 Sudeste 29 Sudeste 0 -- -- 89
2020-03-24 10:00:00 6.5 14 Sudeste 26 Este 0 -- -- 89
2020-03-24 09:00:00 6.9 14 Sudeste 26 Este 0 -- -- 88
2020-03-24 08:00:00 5.7 18 Sudeste 27 Sudeste 0 -- -- 92
2020-03-24 07:00:00 5.6 15 Sudeste 21 Sudeste 0 -- -- 91
2020-03-24 06:00:00 6.1 17 Sudeste 24 Sudeste 0 -- -- 92
2020-03-24 05:00:00 6.1 18 Sudeste 28 Sudeste 0 -- -- 93
2020-03-24 04:00:00 6.4 19 Sudeste 27 Este 0 -- -- 93
2020-03-24 03:00:00 6.7 15 Sudeste 26 Sudeste -- -- -- 94
2020-03-24 02:00:00 6.6 10 Sudeste 23 Sudeste 0 -- -- 93
2020-03-24 01:00:00 7 21 Sudeste 33 Sudeste 0 -- -- 90
2020-03-24 00:00:00 6.9 21 Sudeste 32 Sudeste 0 -- -- 91
2020-03-23 23:00:00 7.3 21 Este 29 Sudeste 0 -- -- 90
2020-03-23 22:00:00 7.5 18 Sudeste 29 Sudeste 0 -- -- 90
2020-03-23 21:00:00 7.6 21 Sudeste 36 Este 0 -- -- 91
2020-03-23 20:00:00 7.9 21 Sudeste 39 Sudeste 0 -- -- 89
2020-03-23 19:00:00 8.8 25 Sudeste 36 Sudeste 0 -- -- 82
2020-03-23 18:00:00 9.6 22 Sudeste 34 Sudeste 0 -- -- 71
2020-03-23 17:00:00 11.2 21 Sudeste 33 Sudeste 0 -- -- 67
2020-03-23 16:00:00 9.4 24 Sudeste 37 Sudeste 0 -- -- 76
2020-03-23 15:00:00 8.9 25 Sudeste 35 Sudeste 0 -- -- 77
2020-03-23 14:00:00 8.7 22 Sudeste 36 Sudeste 0 -- -- 79
2020-03-23 13:00:00 9.1 21 Sudeste 35 Sudeste 0 -- -- 77
2020-03-23 12:00:00 9.3 22 Sudeste 35 Sudeste 0 -- -- 75
2020-03-23 11:00:00 7.2 19 Sudeste 32 Sudeste 0.2 -- -- 89
2020-03-23 10:00:00 7 15 Sudeste 29 Sudeste 0 -- -- 86
2020-03-23 09:00:00 7.4 15 Sudeste 23 Sudeste 0 -- -- 84
2020-03-23 08:00:00 7.3 8 Sur 23 Sudeste 0 -- -- 85
2020-03-23 07:00:00 6 6 Sudeste 24 Sudeste 0 -- -- 91
2020-03-23 06:00:00 5.8 19 Sudeste 32 Sudeste 0 -- -- 92
2020-03-23 05:00:00 5.6 14 Este 19 Este 0 -- -- 91
2020-03-23 04:00:00 5.4 7 Este 29 Este 0 -- -- 90
2020-03-23 03:00:00 5.8 21 Sudeste 29 Este 0 -- -- 88
2020-03-23 02:00:00 6.1 11 Sudeste 13 Sudeste 0 -- -- 83
2020-03-23 01:00:00 6.2 5 Norte 11 Este 0 -- -- 86
2020-03-23 00:00:00 6.5 7 Sudeste 15 Sudeste 0 -- -- 84
2020-03-22 23:00:00 6.5 13 Sudeste 19 Sudeste 0 -- -- 85
2020-03-22 22:00:00 6.5 8 Este 15 Este 0 -- -- 82
2020-03-22 21:00:00 6.4 0 Calma 13 Sudeste 0 -- -- 82
2020-03-22 20:00:00 7.2 13 Sudeste 25 Sur 0 -- -- 78
2020-03-22 19:00:00 9 15 Sudeste 31 Sur 0 -- -- 71
2020-03-22 18:00:00 10.6 19 Sudeste 32 Sudeste 0 -- -- 62
2020-03-22 17:00:00 10.6 23 Sudeste 42 Sur 0 -- -- 62
2020-03-22 16:00:00 10.9 30 Sur 41 Sur 0 -- -- 59
2020-03-22 15:00:00 11 26 Sudeste 38 Sudeste 0 -- -- 58
2020-03-22 14:00:00 11.1 24 Sudeste 42 Sudeste 0 -- -- 62
2020-03-22 13:00:00 11.1 20 Sudeste 34 Sudeste 0 -- -- 60
2020-03-22 12:00:00 9.9 17 Sudeste 26 Sudeste 0 -- -- 62
2020-03-22 11:00:00 9.7 14 Sudeste 25 Este 0 -- -- 62
2020-03-22 10:00:00 8.8 12 Sudeste 20 Sudeste 0 -- -- 69
2020-03-22 09:00:00 7.5 8 Este 15 Este 0 -- -- 78
2020-03-22 08:00:00 6.7 4 Sur 8 Sur 0 -- -- 84
2020-03-22 07:00:00 6.2 2 Nordeste 8 Nordeste 0 -- -- 93
2020-03-22 06:00:00 5.9 8 Nordeste 9 Nordeste 0 -- -- 96
2020-03-22 05:00:00 5.9 5 Norte 14 Nordeste 0 -- -- 95
2020-03-22 04:00:00 5.7 10 Nordeste 14 Norte 0 -- -- 95
2020-03-22 03:00:00 6.1 9 Norte 13 Norte 0 -- -- 94
2020-03-22 02:00:00 6.2 5 Norte 10 Nordeste 0 -- -- 94
2020-03-22 01:00:00 6.5 5 Norte 7 Norte 0 -- -- 93
2020-03-22 00:00:00 7.4 3 Sur 11 Sudeste 0 -- -- 87
2020-03-21 23:00:00 7.5 5 Sudeste 9 Este 0 -- -- 86
2020-03-21 22:00:00 7.7 4 Sudeste 8 Este 0 -- -- 82
2020-03-21 21:00:00 8.2 3 Sur 6 Sudoeste 0 -- -- 80
2020-03-21 20:00:00 8.4 4 Sudoeste 7 Sudoeste 0 -- -- 79
2020-03-21 19:00:00 8.9 5 Sur 17 Sudoeste 0 -- -- 77
2020-03-21 18:00:00 9.3 12 Sudoeste 15 Sudoeste 0 -- -- 72
2020-03-21 17:00:00 10.1 6 Sudoeste 14 Sudoeste 0 -- -- 65
2020-03-21 16:00:00 10.2 11 Sudoeste 15 Sudoeste 0 -- -- 66
2020-03-21 15:00:00 10.9 5 Sudeste 11 Sudeste 0 -- -- 63
2020-03-21 14:00:00 9.5 5 Sudoeste 17 Sudoeste 0 -- -- 71
2020-03-21 13:00:00 8.4 11 Sudoeste 20 Sur 0 -- -- 78
2020-03-21 12:00:00 8.9 14 Sudeste 23 Sudeste 0 -- -- 75
2020-03-21 11:00:00 8.3 19 Sudeste 26 Sudeste 0 -- -- 81
2020-03-21 10:00:00 7.8 19 Sudeste 25 Sudeste 0 -- -- 81
2020-03-21 09:00:00 6.3 15 Sudeste 23 Sur 0 -- -- 88
2020-03-21 08:00:00 5.7 7 Sudeste 16 Sudeste 0 -- -- 90
2020-03-21 07:00:00 5.3 12 Sudeste 14 Sudeste 0 -- -- 90
2020-03-21 06:00:00 5.5 5 Sudoeste 18 Sudeste 0 -- -- 89
2020-03-21 05:00:00 5.6 9 Sudeste 18 Sudeste 0 -- -- 87
2020-03-21 04:00:00 5 16 Sudeste 24 Sudeste 0 -- -- 89
2020-03-21 03:00:00 5.5 17 Sudeste 23 Sudeste 0 -- -- 85
2020-03-21 02:00:00 5.8 11 Sudeste 21 Sudeste 0 -- -- 86
2020-03-21 01:00:00 6.2 12 Sudeste 20 Sudeste 0 -- -- 87
2020-03-21 00:00:00 6.6 13 Sudeste 31 Sudeste 0 -- -- 88
2020-03-20 23:00:00 6.6 22 Sudeste 31 Sudeste 0 -- -- 88
2020-03-20 22:00:00 6.6 4 Sur 26 Sudeste 0 -- -- 91
2020-03-20 21:00:00 7.4 20 Sudeste 27 Sudeste 0 -- -- 89
2020-03-20 20:00:00 8.2 19 Sudeste 31 Sudeste 0 -- -- 86
2020-03-20 19:00:00 9.2 21 Sudeste 27 Sudeste 0 -- -- 80
2020-03-20 18:00:00 10.4 19 Sudeste 26 Sudeste 0 -- -- 74
2020-03-20 17:00:00 11.6 13 Sur 21 Sur 0 -- -- 67
2020-03-20 16:00:00 11.2 11 Sur 24 Sudeste 0 -- -- 70
2020-03-20 15:00:00 9.9 17 Sudeste 27 Sur 0 -- -- 74
2020-03-20 14:00:00 10.7 18 Sur 23 Sudoeste 0 -- -- 72
2020-03-20 13:00:00 11.6 12 Sur 21 Sur 0 -- -- 67
2020-03-20 12:00:00 10.4 8 Sur 15 Sur 0 -- -- 70
2020-03-20 11:00:00 9.4 9 Sur 15 Sur 0 -- -- 74
2020-03-20 10:00:00 7.7 5 Sudoeste 10 Sur 0 -- -- 78
2020-03-20 09:00:00 5.5 11 Sudeste 17 Sudeste 0 -- -- 87
2020-03-20 08:00:00 4.3 5 Sudeste 13 Sudeste 0 -- -- 90
2020-03-20 07:00:00 4 12 Sudeste 17 Sudeste 0 -- -- 88
2020-03-20 06:00:00 3.6 13 Este 17 Sudeste 0 -- -- 88
2020-03-20 05:00:00 4.7 3 Sudeste 14 Sudeste 0 -- -- 82
2020-03-20 04:00:00 4.7 8 Sudeste 18 Sudeste 0 -- -- 84
2020-03-20 03:00:00 5.4 14 Sudeste 18 Sudeste 0 -- -- 79
2020-03-20 02:00:00 6.2 8 Sudeste 22 Sudeste 0 -- -- 78
2020-03-20 01:00:00 7.1 17 Sudeste 22 Sudeste 0 -- -- 76
2020-03-20 00:00:00 6.1 6 Sur 17 Sudeste 0 -- -- 82
2020-03-19 23:00:00 6.7 0 Calma 10 Sur 0 -- -- 79
2020-03-19 22:00:00 7.4 6 Sur 26 Sudeste 0 -- -- 76
2020-03-19 21:00:00 7.8 18 Sudeste 32 Sudeste 0 -- -- 78
2020-03-19 20:00:00 8.1 24 Sudeste 32 Sudeste 0 -- -- 73
2020-03-19 19:00:00 9.8 23 Sudeste 31 Sudeste 0 -- -- 61
2020-03-19 18:00:00 11.9 21 Sudeste 28 Sudeste 0 -- -- 58
2020-03-19 17:00:00 13.1 20 Sudeste 27 Este 0 -- -- 55
2020-03-19 16:00:00 13.1 19 Sudeste 28 Sudeste 0 -- -- 50
2020-03-19 15:00:00 12.9 18 Sudeste 31 Sur 0 -- -- 49
2020-03-19 14:00:00 12.1 21 Sudeste 31 Sudeste 0 -- -- 50
2020-03-19 13:00:00 11.8 22 Sur 28 Sur 0 -- -- 47
2020-03-19 12:00:00 10.6 22 Sudeste 32 Sudeste 0 -- -- 51
2020-03-19 11:00:00 10.8 22 Sur 28 Sur 0 -- -- 58
2020-03-19 10:00:00 9.1 13 Sudeste 18 Sur 0 -- -- 73
2020-03-19 09:00:00 7.7 7 Sudeste 13 Sudeste 0 -- -- 77
2020-03-19 08:00:00 4.6 4 Nordeste 9 Sudeste 0 -- -- 89
2020-03-19 07:00:00 5.7 8 Sudeste 10 Sudeste 0 -- -- 87
2020-03-19 06:00:00 4.2 5 Nordeste 10 Nordeste 0 -- -- 92
2020-03-19 05:00:00 5.6 5 Este 13 Sudeste 0 -- -- 88
2020-03-19 04:00:00 6 11 Sudeste 12 Sudeste 0 -- -- 90
2020-03-19 03:00:00 6.7 9 Sudeste 14 Sudeste 0 -- -- 87
2020-03-19 02:00:00 7 9 Sudeste 15 Sudeste 0 -- -- 88
2020-03-19 01:00:00 7.2 13 Sudeste 17 Sudeste 0 -- -- 90
2020-03-19 00:00:00 7.5 9 Sudeste 12 Este 0 -- -- 88
2020-03-18 23:00:00 8 0 Calma 14 Sudeste 0 -- -- 84
2020-03-18 22:00:00 8.9 11 Sudeste 17 Sudeste 0 -- -- 83
2020-03-18 21:00:00 8.8 12 Sudeste 17 Sudeste 0 -- -- 89
2020-03-18 20:00:00 9.3 9 Sudeste 13 Sudeste 0 -- -- 86
2020-03-18 19:00:00 10.9 5 Este 16 Sudeste 0 -- -- 77
2020-03-18 18:00:00 11.9 9 Sudeste 18 Sur 0 -- -- 72
2020-03-18 17:00:00 12.6 12 Sur 21 Sudeste 0 -- -- 73
2020-03-18 16:00:00 13.8 12 Sur 18 Sur 0 -- -- 67
2020-03-18 15:00:00 14.1 10 Sudeste 18 Sudeste 0 -- -- 62
2020-03-18 14:00:00 13.6 11 Sudeste 22 Sudeste 0 -- -- 56
2020-03-18 13:00:00 12.6 16 Sudeste 21 Sudeste 0 -- -- 57
2020-03-18 12:00:00 11.8 14 Sur 23 Sudeste 0 -- -- 57
2020-03-18 11:00:00 11.2 11 Sudeste 19 Sudeste 0 -- -- 61
2020-03-18 10:00:00 9.8 13 Sudeste 17 Sudeste 0 -- -- 75
2020-03-18 09:00:00 7.3 6 Norte 8 Norte 0 -- -- 88
2020-03-18 08:00:00 6 5 Norte 8 Norte 0 -- -- 94
2020-03-18 07:00:00 5.7 0 Calma 4 Nordeste 0 -- -- 96
2020-03-18 06:00:00 5.7 3 Nordeste 7 Nordeste 0 -- -- 97
2020-03-18 05:00:00 5.3 6 Nordeste 8 Nordeste 0 -- -- 97
2020-03-18 04:00:00 6.2 0 Calma 13 Sudeste 0 -- -- 97
2020-03-18 03:00:00 6.1 2 Este 13 Sur 0 -- -- 95
2020-03-18 02:00:00 7.3 4 Sur 12 Sudeste 0 -- -- 90
2020-03-18 01:00:00 7.5 5 Sudeste 19 Sur 0 -- -- 92
2020-03-18 00:00:00 7.5 10 Sudoeste 20 Sudoeste 0 -- -- 94
2020-03-17 23:00:00 7.5 5 Sudoeste 19 Sur 0 -- -- 92
2020-03-17 22:00:00 7.8 21 Sudeste 32 Sudeste 0 -- -- 92
2020-03-17 21:00:00 8.3 15 Sudeste 41 Sudeste 0 -- -- 92
2020-03-17 20:00:00 8.3 27 Sudeste 43 Sudeste 0 -- -- 93
2020-03-17 19:00:00 8.8 32 Sudeste 45 Sudeste 0 -- -- 91
2020-03-17 18:00:00 8.6 24 Sur 34 Sudeste 0 -- -- 95
2020-03-17 17:00:00 8.8 17 Sudeste 30 Sudeste 0 -- -- 93
2020-03-17 16:00:00 8.8 19 Sudeste 33 Sudeste 0 -- -- 92
2020-03-17 15:00:00 9.5 26 Sudeste 36 Sudeste 0 -- -- 88
2020-03-17 14:00:00 9.1 26 Sudeste 45 Sudeste 0 -- -- 90
2020-03-17 13:00:00 8.8 28 Sudeste 41 Sudeste 0 -- -- 91
2020-03-17 12:00:00 8.4 36 Sudeste 47 Sudeste 0 -- -- 93
2020-03-17 11:00:00 7.4 21 Sudeste 35 Sudeste 0 -- -- 95
2020-03-17 10:00:00 7.2 24 Sudeste 35 Sudeste 0.6 -- -- 94
2020-03-17 09:00:00 6.9 18 Este 36 Este 0.4 -- -- 94
2020-03-17 08:00:00 6.7 16 Este 27 Este 0.6 -- -- 94
2020-03-17 07:00:00 6.6 17 Nordeste 28 Nordeste 0.8 -- -- 93
2020-03-17 06:00:00 5.1 22 Nordeste 35 Nordeste 0 -- -- 95
2020-03-17 05:00:00 5.5 25 Nordeste 38 Nordeste 0 -- -- 92
2020-03-17 04:00:00 5.4 21 Nordeste 40 Nordeste 0.2 -- -- 93
2020-03-17 03:00:00 5.2 30 Nordeste 40 Nordeste 0 -- -- 91
2020-03-17 02:00:00 5.9 28 Nordeste 37 Nordeste 0 -- -- 87
2020-03-17 01:00:00 5.3 23 Nordeste 43 Nordeste 0 -- -- 91
2020-03-17 00:00:00 4.8 28 Nordeste 45 Nordeste 0 -- -- 90
2020-03-16 23:00:00 5.1 30 Nordeste 47 Nordeste 0 -- -- 88
2020-03-16 22:00:00 4.7 32 Nordeste 48 Nordeste 0 -- -- 90
2020-03-16 21:00:00 4.2 37 Nordeste 54 Este 0 -- -- 91
2020-03-16 20:00:00 3.6 31 Nordeste 53 Nordeste 0.8 -- -- 91
2020-03-16 19:00:00 3.3 32 Nordeste 45 Nordeste 0.8 -- -- 92
2020-03-16 18:00:00 2.9 19 Este 49 Este 1.4 -- -- 95
2020-03-16 17:00:00 2.8 39 Nordeste 63 Nordeste 0 -- -- 91
2020-03-16 16:00:00 2 40 Nordeste 57 Nordeste 0.2 -- -- 95
2020-03-16 15:00:00 1.7 33 Nordeste 44 Nordeste 0.4 -- -- 96
2020-03-16 14:00:00 0.8 35 Nordeste 45 Nordeste 0.4 -- -- 98
2020-03-16 13:00:00 0.3 30 Nordeste 39 Nordeste 0 -- -- 99
2020-03-16 12:00:00 0.3 27 Nordeste 43 Nordeste 0 -- -- 99
2020-03-16 11:00:00 0.2 28 Nordeste 36 Nordeste 0.4 -- -- 99
2020-03-16 10:00:00 0.1 27 Nordeste 42 Nordeste 0 -- -- 98
2020-03-16 09:00:00 0.1 12 Nordeste 40 Nordeste 0.4 -- -- 98
2020-03-16 08:00:00 0.3 40 Nordeste 51 Nordeste 0.6 -- -- 98
2020-03-16 07:00:00 1 35 Nordeste 54 Nordeste 2.6 -- -- 94
2020-03-16 06:00:00 2.7 27 Nordeste 37 Nordeste 3.6 -- -- 93
2020-03-16 05:00:00 6.6 22 Sudeste 40 Sur 1.4 -- -- 93
2020-03-16 04:00:00 6.4 24 Sudeste 30 Sudeste 2 -- -- 95
2020-03-16 03:00:00 6.6 13 Sur 21 Sur 1.8 -- -- 96
2020-03-16 02:00:00 6.6 22 Sur 40 Sur 0.8 -- -- 94
2020-03-16 01:00:00 6.8 26 Sur 36 Sur 0 -- -- 89
2020-03-16 00:00:00 6.9 24 Sur 36 Sur 1 -- -- 90
2020-03-15 23:00:00 7.4 17 Sur 27 Oeste 3.6 -- -- 87
2020-03-15 22:00:00 7.1 21 Oeste 36 Oeste 2.4 -- -- 89
2020-03-15 21:00:00 8.6 4 Sur 39 Norte 0 -- -- 84
2020-03-15 20:00:00 11 28 Noroeste 44 Noroeste 0 -- -- 65
2020-03-15 19:00:00 13.7 27 Sudoeste 50 Sudoeste 0 -- -- 61
2020-03-15 18:00:00 15.9 31 Sudoeste 53 Sudoeste 0 -- -- 56
2020-03-15 17:00:00 16.7 32 Sudoeste 45 Sudoeste 0 -- -- 51
2020-03-15 16:00:00 17.1 25 Oeste 37 Sudoeste 0 -- -- 50
2020-03-15 15:00:00 17 26 Oeste 36 Oeste 0 -- -- 54
2020-03-15 14:00:00 16.2 28 Sudoeste 40 Sur 0 -- -- 59
2020-03-15 13:00:00 16.5 27 Sudoeste 42 Sudoeste 0 -- -- 57
2020-03-15 12:00:00 14 21 Sudoeste 27 Sudoeste 0 -- -- 64
2020-03-15 11:00:00 13.3 14 Sudoeste 24 Sudoeste 0 -- -- 63
2020-03-15 10:00:00 10.7 8 Sur 13 Sur 0 -- -- 56
2020-03-15 09:00:00 8.6 0 Calma 2 Nordeste 0 -- -- 58
2020-03-15 08:00:00 4.1 2 Sudeste 6 Norte 0 -- -- 65
2020-03-15 07:00:00 3.2 4 Nordeste 8 Nordeste 0 -- -- 69
2020-03-15 06:00:00 2.7 6 Nordeste 10 Nordeste 0 -- -- 74
2020-03-15 05:00:00 3.8 2 Nordeste 7 Nordeste 0 -- -- 67
2020-03-15 04:00:00 4 5 Norte 8 Norte 0 -- -- 66
2020-03-15 03:00:00 3.8 3 Norte 8 Este 0 -- -- 68
2020-03-15 02:00:00 4.5 4 Este 8 Este 0 -- -- 65
2020-03-15 01:00:00 5.3 0 Calma 8 Norte 0 -- -- 62
2020-03-15 00:00:00 6 2 Nordeste 6 Este 0 -- -- 60
2020-03-14 23:00:00 7.2 3 Sudeste 13 Sudeste 0 -- -- 57
2020-03-14 22:00:00 7.9 10 Este 17 Sudeste 0 -- -- 53
2020-03-14 21:00:00 9.3 14 Sudeste 17 Sudeste 0 -- -- 48
2020-03-14 20:00:00 10.1 8 Este 14 Este 0 -- -- 46
2020-03-14 19:00:00 13.1 13 Nordeste 24 Nordeste 0 -- -- 43
2020-03-14 18:00:00 17.4 6 Nordeste 14 Norte 0 -- -- 27
2020-03-14 17:00:00 18.4 4 Norte 19 Norte 0 -- -- 26
2020-03-14 16:00:00 17.6 7 Norte 16 Norte 0 -- -- 25
2020-03-14 15:00:00 17.3 6 Norte 14 Noroeste 0 -- -- 25
2020-03-14 14:00:00 15.7 9 Norte 20 Norte 0 -- -- 26
2020-03-14 13:00:00 14.3 10 Norte 15 Norte 0 -- -- 31
2020-03-14 12:00:00 12.6 8 Norte 14 Norte 0 -- -- 31
2020-03-14 11:00:00 11.4 7 Norte 14 Norte 0 -- -- 34
2020-03-14 10:00:00 8.7 10 Norte 14 Norte 0 -- -- 68
2020-03-14 09:00:00 4.1 8 Norte 15 Nordeste 0 -- -- 95
2020-03-14 08:00:00 1.7 9 Norte 12 Norte 0 -- -- 96
2020-03-14 07:00:00 1.2 7 Nordeste 9 Nordeste 0 -- -- 97
2020-03-14 06:00:00 1.8 0 Calma 12 Norte 0 -- -- 96
2020-03-14 05:00:00 2.7 9 Norte 15 Norte 0 -- -- 96
2020-03-14 04:00:00 3.3 5 Norte 15 Nordeste 0 -- -- 94
2020-03-14 03:00:00 4.4 15 Nordeste 20 Nordeste 0 -- -- 93
2020-03-14 02:00:00 4.6 0 Calma 21 Nordeste 0 -- -- 90
2020-03-14 01:00:00 4.8 9 Nordeste 19 Nordeste 0 -- -- 90
2020-03-14 00:00:00 4.6 11 Norte 14 Nordeste 0 -- -- 89
2020-03-13 23:00:00 5.7 6 Nordeste 10 Norte 0 -- -- 87
2020-03-13 22:00:00 6.8 3 Nordeste 15 Este 0 -- -- 84
2020-03-13 21:00:00 7.6 14 Nordeste 19 Nordeste 0 -- -- 80
2020-03-13 20:00:00 8.7 16 Nordeste 22 Este 0 -- -- 76
2020-03-13 19:00:00 10.9 17 Nordeste 24 Nordeste 0 -- -- 69
2020-03-13 18:00:00 12.8 23 Nordeste 32 Nordeste 0 -- -- 63
2020-03-13 17:00:00 13.6 26 Nordeste 34 Nordeste 0 -- -- 62
2020-03-13 16:00:00 15.1 24 Nordeste 31 Nordeste 0 -- -- 58
2020-03-13 15:00:00 16.1 11 Nordeste 26 Nordeste 0 -- -- 56
2020-03-13 14:00:00 14.3 15 Nordeste 28 Nordeste 0 -- -- 61
2020-03-13 13:00:00 15.5 3 Sur 15 Sur 0 -- -- 62
2020-03-13 12:00:00 14 9 Sur 22 Nordeste 0 -- -- 61
2020-03-13 11:00:00 11.6 15 Nordeste 27 Nordeste 0 -- -- 68
2020-03-13 10:00:00 9.3 23 Nordeste 47 Nordeste 0 -- -- 75
2020-03-13 09:00:00 7.4 35 Nordeste 46 Nordeste 0 -- -- 83
2020-03-13 08:00:00 6.8 30 Nordeste 46 Nordeste 0 -- -- 86
2020-03-13 07:00:00 6.9 39 Nordeste 54 Nordeste 0 -- -- 85
2020-03-13 06:00:00 7.2 21 Nordeste 30 Nordeste 0 -- -- 87
2020-03-13 05:00:00 7.4 5 Norte 25 Nordeste 0 -- -- 87
2020-03-13 04:00:00 7.6 12 Nordeste 26 Nordeste 0 -- -- 88
2020-03-13 03:00:00 7.9 27 Nordeste 43 Nordeste 0 -- -- 87
2020-03-13 02:00:00 7.6 24 Nordeste 33 Nordeste 0 -- -- 90
2020-03-13 01:00:00 8.3 21 Nordeste 27 Este 0 -- -- 88
2020-03-13 00:00:00 9 21 Nordeste 28 Nordeste 0 -- -- 86
2020-03-12 23:00:00 10.1 24 Nordeste 31 Nordeste 0 -- -- 82
2020-03-12 22:00:00 10.3 14 Nordeste 27 Este 0 -- -- 81
2020-03-12 21:00:00 11.6 17 Nordeste 26 Este 0 -- -- 77
2020-03-12 20:00:00 14.9 20 Este 39 Nordeste 0 -- -- 64
2020-03-12 19:00:00 19 11 Noroeste 22 Norte 0 -- -- 46
2020-03-12 18:00:00 21.6 15 Oeste 26 Oeste 0 -- -- 33
2020-03-12 17:00:00 22.5 15 Oeste 34 Oeste 0 -- -- 34
2020-03-12 16:00:00 23.3 23 Oeste 37 Oeste 0 -- -- 35
2020-03-12 15:00:00 23.4 29 Oeste 45 Oeste 0 -- -- 31
2020-03-12 14:00:00 22.7 28 Sudoeste 36 Sudoeste 0 -- -- 37
2020-03-12 13:00:00 22.8 16 Sudoeste 25 Oeste 0 -- -- 39
2020-03-12 12:00:00 21.3 10 Oeste 16 Oeste 0 -- -- 47
2020-03-12 11:00:00 19.8 5 Sur 7 Sur 0 -- -- 50
2020-03-12 10:00:00 16.3 2 Sudoeste 7 Nordeste 0 -- -- 60
2020-03-12 09:00:00 12.4 0 Calma 7 Este 0 -- -- 71
2020-03-12 08:00:00 7.2 6 Nordeste 11 Nordeste 0 -- -- 78
2020-03-12 07:00:00 6.6 0 Calma 14 Nordeste 0 -- -- 82
2020-03-12 06:00:00 7.1 7 Nordeste 14 Nordeste 0 -- -- 79
2020-03-12 05:00:00 8.5 0 Calma 4 Norte 0 -- -- 72
2020-03-12 04:00:00 8.5 0 Calma 11 Nordeste 0 -- -- 73
2020-03-12 03:00:00 7.9 4 Nordeste 10 Norte 0 -- -- 77
2020-03-12 02:00:00 11.3 3 Sudeste 7 Nordeste 0 -- -- 62
2020-03-12 01:00:00 11.1 0 Calma 12 Sudeste 0 -- -- 63
2020-03-12 00:00:00 11.2 8 Sur 10 Sur 0 -- -- 63
2020-03-11 23:00:00 12.9 4 Nordeste 10 Nordeste 0 -- -- 57
2020-03-11 22:00:00 13 4 Nordeste 8 Nordeste 0 -- -- 58
2020-03-11 21:00:00 16.2 3 Nordeste 15 Nordeste 0 -- -- 46
2020-03-11 20:00:00 16.1 4 Nordeste 13 Norte 0 -- -- 47
2020-03-11 19:00:00 17.9 8 Norte 19 Noroeste 0 -- -- 44
2020-03-11 18:00:00 21.8 15 Norte 32 Noroeste 0 -- -- 33
2020-03-11 17:00:00 22.3 24 Noroeste 34 Noroeste 0 -- -- 31
2020-03-11 16:00:00 22.5 18 Noroeste 31 Noroeste 0 -- -- 32
2020-03-11 15:00:00 21.4 17 Noroeste 31 Noroeste 0 -- -- 34
2020-03-11 14:00:00 20.4 17 Noroeste 27 Noroeste 0 -- -- 34
2020-03-11 13:00:00 18.9 17 Noroeste 28 Oeste 0 -- -- 34
2020-03-11 12:00:00 17.3 13 Noroeste 22 Noroeste 0 -- -- 39
2020-03-11 11:00:00 15.2 5 Noroeste 12 Oeste 0 -- -- 47
2020-03-11 10:00:00 13.7 2 Sur 6 Sur 0 -- -- 61
2020-03-11 09:00:00 10.9 0 Calma 6 Norte 0 -- -- 71
2020-03-11 08:00:00 5.7 2 Oeste 6 Noroeste 0 -- -- 86
2020-03-11 07:00:00 6.2 3 Nordeste 5 Nordeste 0 -- -- 88
2020-03-11 06:00:00 4.5 5 Norte 8 Norte 0 -- -- 94
2020-03-11 05:00:00 6.1 3 Nordeste 6 Norte 0 -- -- 86
2020-03-11 04:00:00 6.1 0 Calma 6 Sur 0 -- -- 87
2020-03-11 03:00:00 5.9 0 Calma 9 Nordeste 0 -- -- 86
2020-03-11 02:00:00 7.6 0 Calma 8 Norte 0 -- -- 80
2020-03-11 01:00:00 8.7 4 Nordeste 6 Nordeste 0 -- -- 76
2020-03-11 00:00:00 9.3 0 Calma 5 Sur 0 -- -- 75
2020-03-10 23:00:00 10.3 0 Calma 15 Nordeste 0 -- -- 70
2020-03-10 22:00:00 11.5 11 Nordeste 20 Norte 0 -- -- 66
2020-03-10 21:00:00 12.9 12 Norte 27 Norte 0 -- -- 61
2020-03-10 20:00:00 13.9 19 Noroeste 31 Noroeste 0 -- -- 58
2020-03-10 19:00:00 15.7 23 Noroeste 36 Noroeste 0 -- -- 52
2020-03-10 18:00:00 16.7 26 Noroeste 39 Noroeste 0 -- -- 48
2020-03-10 17:00:00 17.2 27 Noroeste 38 Noroeste 0 -- -- 46
2020-03-10 16:00:00 18.1 24 Noroeste 33 Noroeste 0 -- -- 45
2020-03-10 15:00:00 18 17 Noroeste 31 Noroeste 0 -- -- 44
2020-03-10 14:00:00 17.2 16 Noroeste 29 Norte 0 -- -- 47
2020-03-10 13:00:00 15.1 17 Norte 34 Noroeste 0 -- -- 50
2020-03-10 12:00:00 13.7 17 Norte 36 Norte 0 -- -- 51
2020-03-10 11:00:00 11.5 23 Norte 32 Norte 0 -- -- 57
2020-03-10 10:00:00 8.7 17 Norte 23 Norte 0 -- -- 67
2020-03-10 09:00:00 6.7 9 Norte 15 Norte 0 -- -- 73
2020-03-10 08:00:00 5.1 6 Norte 11 Norte 0 -- -- 76
2020-03-10 07:00:00 5.2 5 Nordeste 10 Nordeste 0 -- -- 72
2020-03-10 06:00:00 3.9 5 Nordeste 9 Norte 0 -- -- 74
2020-03-10 05:00:00 3.6 8 Norte 12 Norte 0 -- -- 74
2020-03-10 04:00:00 3.7 3 Nordeste 6 Norte 0 -- -- 75
2020-03-10 03:00:00 3.6 0 Calma 5 Sur 0 -- -- 76
2020-03-10 02:00:00 2.9 3 Sudoeste 14 Norte 0 -- -- 76
2020-03-10 01:00:00 4.1 6 Norte 10 Sudeste 0 -- -- 72
2020-03-10 00:00:00 4.5 3 Nordeste 14 Norte 0 -- -- 69
2020-03-09 23:00:00 6 14 Norte 31 Norte 0 -- -- 62
2020-03-09 22:00:00 6.1 21 Norte 37 Norte 0 -- -- 57
2020-03-09 21:00:00 6.5 29 Norte 40 Norte 0 -- -- 56
2020-03-09 20:00:00 6.8 25 Nordeste 45 Norte 0 -- -- 54
2020-03-09 19:00:00 8.3 35 Norte 54 Norte 0 -- -- 47
2020-03-09 18:00:00 9.7 39 Nordeste 51 Norte 0 -- -- 43
2020-03-09 17:00:00 11 41 Nordeste 53 Norte 0 -- -- 43
2020-03-09 16:00:00 11.8 38 Nordeste 51 Norte 0 -- -- 41
2020-03-09 15:00:00 10.5 39 Norte 53 Norte 0 -- -- 43
2020-03-09 14:00:00 10.9 39 Norte 52 Norte 0 -- -- 42
2020-03-09 13:00:00 10.5 31 Norte 46 Norte 0 -- -- 48
2020-03-09 12:00:00 8 14 Noroeste 27 Noroeste 0 -- -- 62
2020-03-09 11:00:00 7.4 19 Noroeste 28 Norte 0 -- -- 65
2020-03-09 10:00:00 6 14 Noroeste 22 Noroeste 0 -- -- 80
2020-03-09 09:00:00 4.4 10 Noroeste 18 Noroeste 0 -- -- 89
2020-03-09 08:00:00 3.5 10 Noroeste 18 Noroeste 0 -- -- 92
2020-03-09 07:00:00 3.3 8 Noroeste 25 Noroeste 0 -- -- 92
2020-03-09 06:00:00 4 16 Noroeste 28 Noroeste 0 -- -- 90
2020-03-09 05:00:00 4.9 21 Noroeste 28 Noroeste 0 -- -- 87
2020-03-09 04:00:00 4.1 12 Norte 30 Noroeste 0 -- -- 90
2020-03-09 03:00:00 5.2 20 Noroeste 37 Noroeste 0 -- -- 86
2020-03-09 02:00:00 6.3 22 Noroeste 32 Noroeste 0 -- -- 87
2020-03-09 01:00:00 6.1 15 Noroeste 24 Noroeste 0 -- -- 88
2020-03-09 00:00:00 6.8 16 Noroeste 27 Noroeste 0 -- -- 82
2020-03-08 23:00:00 6.5 22 Noroeste 31 Noroeste 0 -- -- 80
2020-03-08 22:00:00 6.8 18 Noroeste 24 Noroeste 0 -- -- 74
2020-03-08 21:00:00 7.5 8 Nordeste 22 Noroeste 0 -- -- 75
2020-03-08 20:00:00 8.9 18 Noroeste 36 Noroeste 0 -- -- 68
2020-03-08 19:00:00 10 25 Noroeste 34 Noroeste 0 -- -- 64
2020-03-08 18:00:00 10.7 15 Noroeste 43 Noroeste 0 -- -- 60
2020-03-08 17:00:00 11.4 28 Noroeste 43 Noroeste 0 -- -- 54
2020-03-08 16:00:00 11.8 30 Noroeste 47 Noroeste 0 -- -- 50
2020-03-08 15:00:00 12.3 19 Noroeste 33 Noroeste 0 -- -- 53
2020-03-08 14:00:00 11 17 Noroeste 31 Noroeste 0 -- -- 59
2020-03-08 13:00:00 10 21 Noroeste 33 Noroeste 0 -- -- 64
2020-03-08 12:00:00 9.4 19 Noroeste 31 Noroeste 0 -- -- 64
2020-03-08 11:00:00 8.4 19 Noroeste 30 Noroeste 0 -- -- 68
2020-03-08 10:00:00 7 5 Noroeste 10 Noroeste 0 -- -- 76
2020-03-08 09:00:00 4.5 3 Oeste 9 Noroeste 0 -- -- 79
2020-03-08 08:00:00 0.4 5 Norte 7 Norte 0 -- -- 98
2020-03-08 07:00:00 -0.9 0 Calma 3 Norte 0 -- -- 97
2020-03-08 06:00:00 -0.6 3 Sudeste 5 Sur 0 -- -- 96
2020-03-08 05:00:00 0.5 0 Calma 12 Norte 0 -- -- 96
2020-03-08 04:00:00 1.6 9 Norte 14 Norte 0 -- -- 91
2020-03-08 03:00:00 0.3 5 Norte 7 Norte 0 -- -- 95
2020-03-08 02:00:00 1.6 4 Nordeste 6 Nordeste 0 -- -- 90
2020-03-08 01:00:00 2 2 Nordeste 6 Noroeste 0 -- -- 95
2020-03-08 00:00:00 1.6 6 Norte 8 Este 0 -- -- 93